Deer Park, AL (36529)

9:57 AM CDT on September 16, 2014 (GMT -0500)
Mobile Regional | Change Station
CLOSE
Current Station
Airport
Location: Mobile,
Elevation: 220 ft
Nearby Weather Stations

Elev 220 ft 30.69 °N, 88.25 °W | Updated 1 hour ago

Partly Cloudy
Partly Cloudy
79 °F
Feels Like 79 °F
N
5
Wind Variable Wind from NNW

Today
High -- | Low -- °F
--% Chance of Precip.
Yesterday
High -- | Low -- °F
Precip. -- in
6:38 AM 6:57 PM
Last Quarter, 45% visible
Pressure 30.07 in
Visibility 10.0 miles
Clouds Few 5000 ft
Mostly Cloudy 20000 ft
Dew Point 74 °F
Humidity 84%
Rainfall 0.00 in
Snow Depth Not available.
UV 2 out of 12
Pollen 8.00 out of 12
Air Quality Not available.
Flu Activity Not available.
METAR KMOB 161356Z 34004KT 10SM FEW050 BKN200 26/23 A3008 RMK AO2 SLP181 T02610233

More Conditions Fewer Conditions

Pressure 30.07 in
Visibility 10.0 miles
Clouds Few 5000 ft
Mostly Cloudy 20000 ft
Dew Point 74 °F
Humidity 84%
Rainfall 0.00 in
Snow Depth Not available.
UV 2 out of 12
Pollen 8.00 out of 12
Air Quality Not available.
Flu Activity Not available.
METAR KMOB 161356Z 34004KT 10SM FEW050 BKN200 26/23 A3008 RMK AO2 SLP181 T02610233

More Conditions Fewer Conditions

10-Day Weather Forecast

Almanac

Astronomy

Sep. 16, 2014 Rise Set
Actual Time 6:38 AM CDT 6:57 PM CDT
Civil Twilight 6:13 AM CDT 7:21 PM CDT
Nautical Twilight 5:45 AM CDT 7:50 PM CDT
Astronomical Twilight 5:16 AM CDT 8:18 PM CDT
Moon 12:03 AM CDT 2:04 PM CDT
Length of Visible Light 13h 08m
Length of Day
12h 19m
Tomorrow will be 1m 53s shorter.
Last Quarter, 45% of the Moon is Illuminated
Today
Last Quarter
Sep 24
New
Oct 1
First Quarter
Oct 8
Full
Oct 15
Last Quarter

Today's Extremes

State Highs State Lows

Community

WunderPhotos

Upload Photos

1,753,795 photos uploaded!

Nearby

Snow Depth

Station Depth Elevation
No new snow has been reported.

Earthquake Activity

City Distance Mag. Time & Date
No recent earthquake activity has been reported nearby.
Minimum magnitude displayed is 2.5.

Coastal Water Temperatures

Place Temperature
Mobile State Docks, AL 87.1 °F
Coast Guard Sector Mobile, AL 87.1 °F

Nearby Weather Stations